createdAt,value
2019-01-13T00:00:43.560Z,62.01
2019-01-13T00:03:13.255Z,62.04
2019-01-13T00:05:42.959Z,62.30
2019-01-13T00:08:12.408Z,62.40
2019-01-13T00:28:04.939Z,62.96
2019-01-13T00:30:34.632Z,63.64
2019-01-13T00:33:04.011Z,63.04
2019-01-13T00:35:33.844Z,63.86
2019-01-13T00:38:04.220Z,63.17
2019-01-13T00:40:33.808Z,63.02
2019-01-13T00:43:03.196Z,63.09
2019-01-13T00:45:32.790Z,63.06
2019-01-13T00:48:02.447Z,64.26
2019-01-13T00:50:32.157Z,63.53
2019-01-13T00:53:01.901Z,63.27
2019-01-13T00:55:31.492Z,63.67
2019-01-13T00:58:01.125Z,63.30
2019-01-13T01:00:30.932Z,63.07
2019-01-13T01:03:01.485Z,63.59
2019-01-13T01:05:31.101Z,63.58
2019-01-13T01:08:00.635Z,63.87
2019-01-13T01:10:30.299Z,64.11
2019-01-13T01:12:59.667Z,63.39
2019-01-13T01:15:29.216Z,63.17
2019-01-13T01:17:58.773Z,63.60
2019-01-13T01:37:50.911Z,66.22
2019-01-13T01:40:21.691Z,66.02
2019-01-13T01:42:51.440Z,66.43
2019-01-13T01:45:21.739Z,65.65
2019-01-13T01:47:51.366Z,65.79
2019-01-13T01:50:21.042Z,65.90
2019-01-13T01:52:50.647Z,65.83
2019-01-13T02:12:42.527Z,65.12
2019-01-13T02:15:15.484Z,65.74
2019-01-13T02:17:45.360Z,65.36
2019-01-13T02:20:16.067Z,65.69
2019-01-13T02:22:45.843Z,65.48
2019-01-13T02:25:16.815Z,65.16
2019-01-13T02:27:46.270Z,65.84
2019-01-13T02:47:37.260Z,66.26
2019-01-13T02:50:06.964Z,66.39
2019-01-13T03:09:59.205Z,65.86
2019-01-13T03:12:28.980Z,66.59
2019-01-13T03:14:58.519Z,66.78
2019-01-13T03:17:27.995Z,66.56
2019-01-13T03:19:57.588Z,65.85
2019-01-13T03:22:27.276Z,66.06
2019-01-13T03:24:56.972Z,66.34
2019-01-13T03:27:26.780Z,65.81
2019-01-13T03:29:56.277Z,66.40
2019-01-13T03:49:47.434Z,65.65
2019-01-13T03:52:17.135Z,66.37
2019-01-13T03:54:46.880Z,65.96
2019-01-13T03:57:16.662Z,65.51
2019-01-13T03:59:46.257Z,65.71
2019-01-13T04:02:16.408Z,66.34
2019-01-13T04:22:08.541Z,67.58
2019-01-13T04:24:38.151Z,67.10
2019-01-13T04:29:45.316Z,67.40
2019-01-13T04:32:14.861Z,66.87
2019-01-13T04:34:44.472Z,66.49
2019-01-13T04:37:13.990Z,67.11
2019-01-13T04:39:43.547Z,67.23
2019-01-13T04:42:13.314Z,66.63
2019-01-13T04:44:42.808Z,67.25
2019-01-13T04:47:12.278Z,67.39
2019-01-13T04:49:41.599Z,67.52
2019-01-13T04:52:11.412Z,66.92
2019-01-13T04:54:41.136Z,67.37
2019-01-13T04:57:11.356Z,66.83
2019-01-13T04:59:41.067Z,67.21
2019-01-13T05:02:10.656Z,66.68
2019-01-13T05:04:40.400Z,66.85
2019-01-13T05:07:09.874Z,67.74
2019-01-13T05:09:39.964Z,68.26
2019-01-13T05:12:10.039Z,68.54
2019-01-13T05:14:39.621Z,68.71
2019-01-13T05:17:09.351Z,68.33
2019-01-13T05:19:39.075Z,68.83
2019-01-13T05:22:08.762Z,68.45
2019-01-13T05:24:38.478Z,68.78
2019-01-13T05:27:08.172Z,68.51
2019-01-13T05:29:37.573Z,68.16
2019-01-13T05:32:07.212Z,68.28
2019-01-13T05:34:36.724Z,68.28
2019-01-13T05:37:06.115Z,68.71
2019-01-13T05:39:35.825Z,68.48
2019-01-13T05:42:05.307Z,68.93
2019-01-13T05:44:35.036Z,68.91
2019-01-13T05:47:04.597Z,69.10
2019-01-13T05:49:34.181Z,68.77
2019-01-13T05:52:03.549Z,68.86
2019-01-13T05:54:33.234Z,68.45
2019-01-13T05:57:02.899Z,68.50
2019-01-13T05:59:32.576Z,68.35
2019-01-13T06:02:02.011Z,68.63
2019-01-13T06:04:31.807Z,68.54
2019-01-13T06:07:01.598Z,69.36
2019-01-13T06:09:31.308Z,69.52
2019-01-13T06:12:00.978Z,68.76
2019-01-13T06:14:30.619Z,68.52
2019-01-13T06:17:00.620Z,68.83
2019-01-13T06:19:30.251Z,68.07
2019-01-13T06:21:59.848Z,68.54
2019-01-13T06:24:29.497Z,68.44
2019-01-13T06:26:58.975Z,68.63
2019-01-13T06:29:28.588Z,68.82
2019-01-13T06:31:58.430Z,70.83
2019-01-13T06:34:28.151Z,68.89
2019-01-13T06:36:57.613Z,69.72
2019-01-13T06:39:27.416Z,69.08
2019-01-13T06:41:56.928Z,71.12
2019-01-13T06:44:26.466Z,71.21
2019-01-13T06:46:56.343Z,70.07
2019-01-13T06:49:26.017Z,69.95
2019-01-13T06:51:56.260Z,68.65
2019-01-13T06:54:26.218Z,68.77
2019-01-13T06:56:55.875Z,68.39
2019-01-13T06:59:25.470Z,68.22
2019-01-13T07:01:55.153Z,68.36
2019-01-13T07:04:24.861Z,67.73
2019-01-13T07:06:54.628Z,67.97
2019-01-13T07:09:24.732Z,67.52
2019-01-13T07:11:54.768Z,67.79
2019-01-13T07:14:24.738Z,67.42
2019-01-13T07:16:54.199Z,67.64
2019-01-13T07:19:25.043Z,67.86
2019-01-13T07:21:54.821Z,67.90
2019-01-13T07:24:24.371Z,68.04
2019-01-13T07:26:54.037Z,68.41
2019-01-13T07:29:23.688Z,67.25
2019-01-13T07:31:53.262Z,67.20
2019-01-13T07:34:22.701Z,67.52
2019-01-13T07:36:52.404Z,66.74
2019-01-13T07:39:22.139Z,66.50
2019-01-13T07:41:51.820Z,67.37
2019-01-13T07:44:21.595Z,66.65
2019-01-13T07:46:51.409Z,67.55
2019-01-13T07:49:21.167Z,67.24
2019-01-13T07:51:52.599Z,66.75
2019-01-13T07:54:24.530Z,67.34
2019-01-13T07:56:54.321Z,71.84
2019-01-13T07:59:23.932Z,69.42
2019-01-13T08:01:53.785Z,69.60
2019-01-13T08:04:23.537Z,68.17
2019-01-13T08:06:53.319Z,68.06
2019-01-13T08:09:22.766Z,66.54
2019-01-13T08:11:52.565Z,66.22
2019-01-13T08:14:22.158Z,66.51
2019-01-13T08:16:51.909Z,66.17
2019-01-13T08:19:22.442Z,65.65
2019-01-13T08:21:51.997Z,65.87
2019-01-13T08:24:21.807Z,65.53
2019-01-13T08:26:51.562Z,65.54
2019-01-13T08:29:22.050Z,66.97
2019-01-13T08:31:51.793Z,67.58
2019-01-13T08:34:21.774Z,68.16
2019-01-13T08:36:51.287Z,67.27
2019-01-13T08:39:20.821Z,67.38
2019-01-13T08:41:50.739Z,65.58
2019-01-13T08:44:20.329Z,65.69
2019-01-13T08:46:50.829Z,66.00
2019-01-13T08:49:20.578Z,65.63
2019-01-13T08:51:50.415Z,65.92
2019-01-13T08:54:20.314Z,65.70
2019-01-13T08:56:49.976Z,65.80
2019-01-13T08:59:19.477Z,64.64
2019-01-13T09:01:49.472Z,64.82
2019-01-13T09:04:19.361Z,65.31
2019-01-13T09:06:49.075Z,64.64
2019-01-13T09:09:18.870Z,64.16
2019-01-13T09:11:48.435Z,64.01
2019-01-13T09:14:18.273Z,63.94
2019-01-13T09:16:48.069Z,62.85
2019-01-13T09:20:20.820Z,64.67
2019-01-13T09:22:50.460Z,62.27
2019-01-13T09:25:20.571Z,62.26
2019-01-13T09:27:50.464Z,61.84
2019-01-13T09:30:22.830Z,59.63
2019-01-13T09:32:52.541Z,57.76
2019-01-13T09:35:22.318Z,56.00
2019-01-13T09:37:52.323Z,55.49
2019-01-13T09:40:24.904Z,56.60
2019-01-13T09:42:54.705Z,56.73
2019-01-13T09:45:24.595Z,57.50
2019-01-13T09:47:54.159Z,56.18
2019-01-13T09:50:23.979Z,55.39
2019-01-13T09:52:53.775Z,55.14
2019-01-13T09:55:23.981Z,55.88
2019-01-13T09:57:53.563Z,56.39
2019-01-13T10:00:25.531Z,56.50
2019-01-13T10:02:55.237Z,56.92
2019-01-13T10:05:24.831Z,53.88
2019-01-13T10:07:54.750Z,51.51
2019-01-13T10:10:24.259Z,51.75
2019-01-13T10:12:54.473Z,50.69
2019-01-13T10:15:23.939Z,50.33
2019-01-13T10:17:53.604Z,50.83
2019-01-13T10:20:23.407Z,50.88
2019-01-13T10:22:53.072Z,50.00
2019-01-13T10:25:22.619Z,50.52
2019-01-13T10:27:52.103Z,51.49
2019-01-13T10:30:27.007Z,50.51
2019-01-13T10:32:56.545Z,50.72
2019-01-13T10:35:26.298Z,50.99
2019-01-13T10:37:55.958Z,50.89
2019-01-13T10:40:27.636Z,51.50
2019-01-13T10:42:57.397Z,51.64
2019-01-13T10:45:27.608Z,51.02
2019-01-13T10:47:57.715Z,51.92
2019-01-13T10:50:29.752Z,50.64
2019-01-13T10:53:01.860Z,50.72
2019-01-13T10:55:32.030Z,50.30
2019-01-13T10:58:01.831Z,50.16
2019-01-13T11:00:35.303Z,50.74
2019-01-13T11:03:12.280Z,50.95
2019-01-13T11:05:42.924Z,52.67
2019-01-13T11:08:12.495Z,51.46
2019-01-13T11:10:42.243Z,51.62
2019-01-13T11:13:11.886Z,52.47
2019-01-13T11:15:41.595Z,50.97
2019-01-13T11:18:11.464Z,50.91
2019-01-13T11:20:41.419Z,50.94
2019-01-13T11:23:11.826Z,50.61
2019-01-13T11:25:41.536Z,49.58
2019-01-13T11:28:11.383Z,50.68
2019-01-13T11:30:41.065Z,49.90
2019-01-13T11:33:10.661Z,49.63
2019-01-13T11:35:40.383Z,47.47
2019-01-13T11:38:10.789Z,47.08
2019-01-13T11:40:40.446Z,46.81
2019-01-13T11:43:11.246Z,47.11
2019-01-13T11:45:39.691Z,47.36
2019-01-13T11:48:09.388Z,48.42
2019-01-13T11:50:38.996Z,48.93
2019-01-13T11:53:08.452Z,49.85
2019-01-13T11:55:38.387Z,51.12
2019-01-13T11:58:07.972Z,52.64
2019-01-13T12:00:42.802Z,52.54
2019-01-13T12:03:16.831Z,53.13
2019-01-13T12:05:42.534Z,56.15
2019-01-13T12:08:12.580Z,54.74
2019-01-13T12:10:42.076Z,55.62
2019-01-13T12:13:11.643Z,54.93
2019-01-13T12:15:41.120Z,56.15
2019-01-13T12:18:10.692Z,56.03
2019-01-13T12:20:40.131Z,55.87
2019-01-13T12:23:09.875Z,55.22
2019-01-13T12:25:39.426Z,56.23
2019-01-13T12:28:09.283Z,55.58
2019-01-13T12:30:38.780Z,55.20
2019-01-13T12:33:08.517Z,56.59
2019-01-13T12:35:38.211Z,56.77
2019-01-13T12:38:08.038Z,57.17
2019-01-13T12:40:37.776Z,57.25
2019-01-13T12:43:07.820Z,57.13
2019-01-13T12:45:37.984Z,56.96
2019-01-13T12:48:07.602Z,57.20
2019-01-13T12:50:37.165Z,56.74
2019-01-13T12:53:06.523Z,57.22
2019-01-13T12:55:36.132Z,58.84
2019-01-13T12:58:05.774Z,58.65
2019-01-13T13:00:35.599Z,58.72
2019-01-13T13:03:04.987Z,58.15
2019-01-13T13:05:34.554Z,57.35
2019-01-13T13:08:04.073Z,57.64
2019-01-13T13:10:39.923Z,57.04
2019-01-13T13:13:09.592Z,56.45
2019-01-13T13:15:39.031Z,57.54
2019-01-13T13:18:08.570Z,57.81
2019-01-13T13:20:38.343Z,57.77
2019-01-13T13:23:08.033Z,59.20
2019-01-13T13:25:37.339Z,57.97
2019-01-13T13:28:07.291Z,58.25
2019-01-13T13:30:37.087Z,56.66
2019-01-13T13:33:06.734Z,56.51
2019-01-13T13:35:40.035Z,57.68
2019-01-13T13:38:06.172Z,57.82
2019-01-13T13:40:35.598Z,57.86
2019-01-13T13:43:05.332Z,57.93
2019-01-13T13:45:34.982Z,57.92
2019-01-13T13:48:04.562Z,57.76
2019-01-13T13:50:34.203Z,58.42
2019-01-13T13:53:03.771Z,59.06
2019-01-13T13:55:33.586Z,59.88
2019-01-13T13:58:03.301Z,58.54
2019-01-13T14:00:35.088Z,59.21
2019-01-13T14:03:05.091Z,58.82
2019-01-13T14:05:35.043Z,59.62
2019-01-13T14:08:04.551Z,59.64
2019-01-13T14:10:38.689Z,59.09
2019-01-13T14:13:08.519Z,58.54
2019-01-13T14:15:38.157Z,59.21
2019-01-13T14:18:07.711Z,59.23
2019-01-13T14:20:37.542Z,59.51
2019-01-13T14:23:07.232Z,59.65
2019-01-13T14:25:36.835Z,61.02
2019-01-13T14:28:06.579Z,59.84
2019-01-13T14:30:36.182Z,59.82
2019-01-13T14:33:05.690Z,60.54
2019-01-13T14:35:35.459Z,60.87
2019-01-13T14:38:05.039Z,61.25
2019-01-13T14:40:34.689Z,60.12
2019-01-13T14:43:04.229Z,60.17
2019-01-13T14:45:33.787Z,59.77
2019-01-13T14:48:03.182Z,60.76
2019-01-13T14:50:33.836Z,60.72
2019-01-13T14:53:03.928Z,61.18
2019-01-13T14:55:33.860Z,61.03
2019-01-13T14:58:03.315Z,61.41
2019-01-13T15:00:33.536Z,61.34
2019-01-13T15:03:03.329Z,61.26
2019-01-13T15:05:33.200Z,61.50
2019-01-13T15:08:02.772Z,61.41
2019-01-13T15:10:32.578Z,61.29
2019-01-13T15:13:02.064Z,60.97
2019-01-13T15:15:31.728Z,60.79
2019-01-13T15:18:01.224Z,61.14
2019-01-13T15:20:31.622Z,60.73
2019-01-13T15:23:01.561Z,61.20
2019-01-13T15:25:31.670Z,60.83
2019-01-13T15:28:01.337Z,60.86
2019-01-13T15:30:34.056Z,61.93
2019-01-13T15:33:05.408Z,61.67
2019-01-13T15:35:35.314Z,60.98
2019-01-13T15:38:05.188Z,60.95
2019-01-13T15:40:35.048Z,61.50
2019-01-13T15:43:05.583Z,61.38
2019-01-13T15:45:35.087Z,61.50
2019-01-13T15:48:05.340Z,61.03
2019-01-13T15:50:34.893Z,61.56
2019-01-13T15:53:04.333Z,61.13
2019-01-13T15:55:33.959Z,61.05
2019-01-13T15:58:03.284Z,61.20
2019-01-13T16:00:34.753Z,61.85
2019-01-13T16:03:05.357Z,61.53
2019-01-13T16:05:35.191Z,62.04
2019-01-13T16:08:04.681Z,62.95
2019-01-13T16:10:34.135Z,62.96
2019-01-13T16:13:03.603Z,62.54
2019-01-13T16:15:34.658Z,62.73
2019-01-13T16:18:10.294Z,62.91
2019-01-13T16:20:41.374Z,61.64
2019-01-13T16:23:11.407Z,62.64
2019-01-13T16:25:41.266Z,62.75
2019-01-13T16:28:11.321Z,62.72
2019-01-13T16:30:41.116Z,62.24
2019-01-13T16:33:10.650Z,62.56
2019-01-13T16:35:40.326Z,62.50
2019-01-13T16:38:10.859Z,62.84
2019-01-13T16:40:40.881Z,63.87
2019-01-13T16:43:10.499Z,64.03
2019-01-13T16:45:40.254Z,63.84
2019-01-13T16:48:09.896Z,64.62
2019-01-13T16:50:39.402Z,64.44
2019-01-13T16:53:10.087Z,64.39
2019-01-13T16:55:40.057Z,64.05
2019-01-13T16:58:09.729Z,64.08
2019-01-13T17:00:39.690Z,63.20
2019-01-13T17:03:09.462Z,63.36
2019-01-13T17:05:39.051Z,63.95
2019-01-13T17:08:08.945Z,63.78
2019-01-13T17:10:38.654Z,62.52
2019-01-13T17:13:08.370Z,62.83
2019-01-13T17:15:38.738Z,62.69
2019-01-13T17:18:09.436Z,64.02
2019-01-13T17:20:39.448Z,64.28
2019-01-13T17:23:10.081Z,64.48
2019-01-13T17:25:39.789Z,64.41
2019-01-13T17:28:09.724Z,64.34
2019-01-13T17:30:40.376Z,65.22
2019-01-13T17:33:10.114Z,63.82
2019-01-13T17:35:39.770Z,64.35
2019-01-13T17:38:09.373Z,64.55
2019-01-13T17:40:39.073Z,64.17
2019-01-13T17:43:11.068Z,64.21
2019-01-13T17:45:40.609Z,64.51
2019-01-13T17:48:10.812Z,63.92
2019-01-13T17:50:40.641Z,64.11
2019-01-13T17:53:10.675Z,63.71
2019-01-13T17:55:40.428Z,64.29
2019-01-13T17:58:11.576Z,64.26
2019-01-13T18:01:00.808Z,63.34
2019-01-13T18:03:35.030Z,63.08
2019-01-13T18:06:04.557Z,63.48
2019-01-13T18:08:34.086Z,63.20
2019-01-13T18:11:03.558Z,65.00
2019-01-13T18:13:33.207Z,63.52
2019-01-13T18:16:02.710Z,63.76
2019-01-13T18:18:32.663Z,65.80
2019-01-13T18:21:02.258Z,63.26
2019-01-13T18:23:31.981Z,62.76
2019-01-13T18:26:01.498Z,63.42
2019-01-13T18:28:31.241Z,63.67
2019-01-13T18:31:01.042Z,63.92
2019-01-13T18:33:30.891Z,63.53
2019-01-13T18:36:00.404Z,63.90
2019-01-13T18:38:30.621Z,64.55
2019-01-13T18:41:00.349Z,65.09
2019-01-13T18:43:30.086Z,65.94
2019-01-13T18:46:00.422Z,66.48
2019-01-13T18:48:30.067Z,66.21
2019-01-13T18:50:59.582Z,65.43
2019-01-13T18:53:29.324Z,65.75
2019-01-13T18:55:58.817Z,65.98
2019-01-13T18:58:28.203Z,66.26
2019-01-13T19:00:57.547Z,66.42
2019-01-13T19:03:28.204Z,65.99
2019-01-13T19:05:57.022Z,67.04
2019-01-13T19:08:26.622Z,67.58
2019-01-13T19:11:03.369Z,66.57
2019-01-13T19:13:52.319Z,68.67
2019-01-13T19:16:22.034Z,68.74
2019-01-13T19:18:51.818Z,67.03
2019-01-13T19:21:21.240Z,66.52
2019-01-13T19:23:50.712Z,66.41
2019-01-13T19:26:20.221Z,66.81
2019-01-13T19:28:49.692Z,66.59
2019-01-13T19:31:19.574Z,66.82
2019-01-13T19:33:49.172Z,66.85
2019-01-13T19:36:18.659Z,66.71
2019-01-13T19:38:48.048Z,67.52
2019-01-13T19:41:17.431Z,67.51
2019-01-13T19:43:46.869Z,67.61
2019-01-13T19:46:16.314Z,67.38
2019-01-13T19:48:45.690Z,67.56
2019-01-13T19:51:15.063Z,67.59
2019-01-13T19:53:44.459Z,67.41
2019-01-13T19:56:13.970Z,68.82
2019-01-13T19:58:43.329Z,68.16
2019-01-13T20:01:12.718Z,67.92
2019-01-13T20:03:42.082Z,67.76
2019-01-13T20:06:11.640Z,67.07
2019-01-13T20:08:41.218Z,67.74
2019-01-13T20:11:10.684Z,67.42
2019-01-13T20:13:40.166Z,67.22
2019-01-13T20:16:09.759Z,67.54
2019-01-13T20:18:39.244Z,67.64
2019-01-13T20:21:08.680Z,68.14
2019-01-13T20:23:38.152Z,68.28
2019-01-13T20:26:07.915Z,68.19
2019-01-13T20:28:37.205Z,68.97
2019-01-13T20:31:06.572Z,69.17
2019-01-13T20:33:35.917Z,68.96
2019-01-13T20:36:05.581Z,68.62
2019-01-13T20:38:35.049Z,69.11
2019-01-13T20:41:05.737Z,68.51
2019-01-13T20:43:35.354Z,68.70
2019-01-13T20:46:05.023Z,68.83
2019-01-13T20:48:34.393Z,69.37
2019-01-13T20:51:04.078Z,69.57
2019-01-13T20:53:33.531Z,69.21
2019-01-13T20:56:03.062Z,69.18
2019-01-13T20:58:32.700Z,69.19
2019-01-13T21:01:02.083Z,69.36
2019-01-13T21:03:31.515Z,69.29
2019-01-13T21:06:01.099Z,69.69
2019-01-13T21:08:30.676Z,69.70
2019-01-13T21:11:00.149Z,69.96
2019-01-13T21:13:29.635Z,70.65
2019-01-13T21:15:59.223Z,70.53
2019-01-13T21:18:28.644Z,71.40
2019-01-13T21:20:58.309Z,71.33
2019-01-13T21:23:27.847Z,71.16
2019-01-13T21:25:57.549Z,71.61
2019-01-13T21:28:27.131Z,71.51
2019-01-13T21:30:56.631Z,71.46
2019-01-13T21:33:26.127Z,70.69
2019-01-13T21:35:55.474Z,70.88
2019-01-13T21:38:25.101Z,71.06
2019-01-13T21:40:54.548Z,70.73
2019-01-13T21:43:24.091Z,71.02
2019-01-13T21:45:53.548Z,70.42
2019-01-13T21:48:23.072Z,70.99
2019-01-13T21:50:52.602Z,71.57
2019-01-13T21:53:22.100Z,71.87
2019-01-13T21:55:51.560Z,72.45
2019-01-13T21:58:21.270Z,71.91
2019-01-13T22:00:50.679Z,71.43
2019-01-13T22:03:20.245Z,71.49
2019-01-13T22:05:49.712Z,71.86
2019-01-13T22:08:19.244Z,71.42
2019-01-13T22:10:48.791Z,71.96
2019-01-13T22:13:18.490Z,71.47
2019-01-13T22:15:47.877Z,71.88
2019-01-13T22:18:17.413Z,71.82
2019-01-13T22:20:47.129Z,71.72
2019-01-13T22:23:17.194Z,72.46
2019-01-13T22:25:45.898Z,72.86
2019-01-13T22:28:15.623Z,72.99
2019-01-13T22:30:45.027Z,72.93
2019-01-13T22:33:14.406Z,71.74
2019-01-13T22:35:48.128Z,72.14
2019-01-13T22:38:13.499Z,72.72
2019-01-13T22:40:42.879Z,72.20
2019-01-13T22:43:12.333Z,72.76
2019-01-13T22:45:41.797Z,73.40
2019-01-13T22:48:11.275Z,73.54
2019-01-13T22:50:40.763Z,73.51
2019-01-13T22:53:10.376Z,72.68
2019-01-13T22:55:39.674Z,72.96
2019-01-13T22:58:09.013Z,73.46
2019-01-13T23:01:42.846Z,73.75
2019-01-13T23:04:13.878Z,73.36
2019-01-13T23:06:43.325Z,73.22
2019-01-13T23:09:13.609Z,73.19
2019-01-13T23:11:43.139Z,72.85
2019-01-13T23:14:12.621Z,72.66
2019-01-13T23:16:42.061Z,71.90
2019-01-13T23:19:11.761Z,72.36
2019-01-13T23:21:41.047Z,72.38
2019-01-13T23:24:10.450Z,72.66
2019-01-13T23:26:39.915Z,72.80
2019-01-13T23:29:09.354Z,73.77
2019-01-13T23:31:38.729Z,74.04
2019-01-13T23:34:08.262Z,73.10
2019-01-13T23:36:37.763Z,73.56
2019-01-13T23:39:08.763Z,74.03
2019-01-13T23:41:38.207Z,73.51
2019-01-13T23:44:07.709Z,73.66
2019-01-13T23:46:37.139Z,73.36
2019-01-13T23:49:06.519Z,73.41
2019-01-13T23:51:35.944Z,73.17
2019-01-13T23:54:05.495Z,73.19
2019-01-13T23:56:34.854Z,74.17
2019-01-13T23:59:04.218Z,75.47
